ED1ZAE-C
43.27.97N 005.40.54W
IN73DL aprs.fi
zuletzt gehoert:
2022-11-20T15:17:04Z
zuerst gehoert:
2020-02-15T11:24:11Z

APRS Gijón/Xixón [IN73DL], 2 Stunde(n), ED1ZAE-C [11:27:44, 0s].
ED1ZAS 43.27.52N 005.40.17WIN73DL 0.216km 116°ESE10:22:04ZRD985 438.2250/430.6250 CC1
ED1ZAE 43.27.99N 005.40.54WIN73DL 0.815km 338°NNW10:23:44ZWIDE3-3 ESAS3-3 IN73DL WWW.EA1URG.ORG(3ED1ZAE-3)
EA4ACU 43.29.56N 005.38.92WIN73EL 4.133km 27°NNE10:24:53ZMMDVM MMDVM HS Hat 432.7000/432.7000 CC1(3EA4ACU-1)
EA1DZR 43.31.48N 005.40.00WIN73DM 7.235km N10:24:03ZMMDVM MMDVM HS Hat 432.2000/432.2000 CC2(3EA1DZR-2)
MMDVM DVMega 431.1000/431.1000 CC1(2EA1DZR-1)
MMDVM DV ADER 434.3500/434.3500 CC1(2EA1DZR-4)
EB1GEM 43.30.00N 005.36.07WIN73EM 7.277km 52°NE10:27:09ZWX3in1Plus2.0 U=13.3V,T=??.?C/??.?F(3EB1GEM-3)
EA1FFA 43.31.53N 005.40.64WIN73DM 7.346km 357°N10:24:22ZMMDVM MMDVM HS Hat 438.8000/438.8000 CC1(3EA1FFA-1)
EA1IEJ 43.31.83N 005.40.22WIN73DM 7.872km N10:24:13ZMMDVM DMO 222.3400/222.3400 CC1(3EA1IEJ-11)
EA1IPU 43.26.21N 005.46.62WIN73CK 8.838km 253°WSW10:24:04ZMMDVM MMDVM HS Hat 439.8000/439.8000 CC1(3EA1IPU-1)
EB1TK 43.32.22N 005.42.32WIN73DM 9.021km 343°NNW10:25:17ZWind 117°/010kn, Böen bis 017kn, Temp 12.22c, Regen 0.0mm, letzte 24h 0.0mm, seit 0h 0.0mm, Baro 1024.3h, Hum: 74%(3EB1TK-13)
LEEL 43.32.98N 005.41.71WIN73DN 10.177km 349°N10:00:10ZHelipuerto de El Musel: LEAS 010900Z 12006KT 070V160 9999 FEW030 10/07 Q1021 NOSIG=
EA1ABW 43.24.77N 005.47.77WIN73CJ 11.296km 243°WSW10:23:42ZMMDVM MMDVM HS Hat 439.8250/439.8250 CC1(3EA1ABW-2)
LEMR 43.25.83N 005.49.60WIN73CK 12.907km 255°WSW10:00:10ZAerodromo de la Morgal (123.500MHz): LEAS 010900Z 12006KT 070V160 9999 FEW030 10/07 Q1021 NOSIG=
LEGM 43.26.15N 005.49.84WIN73CK 13.070km 258°WSW10:00:08ZHelipuerto de La Morgal (123.500MHz): LEAS 010900Z 12006KT 070V160 9999 FEW030 10/07 Q1021 NOSIG=
LEHU 43.22.63N 005.49.57WIN73CJ 15.472km 234°SW10:00:09ZHelipuerto del HUCA: LEAS 010900Z 12006KT 070V160 9999 FEW030 10/07 Q1021 NOSIG=
EA1JW 43.31.35N 005.28.83WIN73GM 16.955km 66°ENE10:23:54ZMMDVM MMDVM HS Hat 436.5000/436.5000 CC1(3EA1JW-3)
EA1JBU 43.21.85N 005.51.13WIN73BI 18.021km 234°SW10:00:12ZEA1JBU(3EA1JBU-1)
33D00 43.21.63N 005.51.13WIN73BI 18.254km 233°SW10:01:42Z33-D-00 Protección Civil REMER / Delegación del Gobierno en Asturias
EA1JAY 43.21.54N 005.51.34WIN73BI 18.591km 233°SW10:00:12ZEA1JAY(3EA1JAY-2)
434.525MHz Nodo TETRA DMO(2EA1JAY-4)
ED1ZAU 43.23.04N 005.52.75WIN73BJ 18.734km 243°WSW10:22:05ZRD625 438.5000/430.9000 CC1
EA1FHR 43.28.72N 005.26.41WIN73GL 18.816km 83°E10:22:34ZMMDVM MMDVM HS Hat 439.1500/439.1500 CC1
EA1HWD 43.28.96N 005.26.30WIN73GL 19.031km 82°E10:22:51ZMMDVM MMDVM HS Hat 434.2500/434.2500 CC1
EA1HJA 43.21.47N 005.52.09WIN73BI 19.471km 235°SW10:23:56Z IN73FL WX3IN1+ 2.0 - V=13.3V,TX TEMP=22.9C(3EA1HJA-2)
IN73FL WX3IN1+ 2.0 - V=11.6V,TX TEMP=41.6C(2EA1HJA)
EA1L 43.20.37N 005.51.13WIN73BI 19.742km 228°SW10:25:11Zea1l@ure.es V=13.2V
Wind 183°/003kn, Böen bis 006kn, Temp 13.33c, Regen 0.0mm, letzte 24h 0.0mm, seit 0h 0.0mm, Baro 1019.6h, Hum: 0%(2EA1L-13)
EA1HWX 43.19.28N 005.50.98WIN73BH 21.036km 223°SW10:24:29ZDMO - UHF 439.7250/431.0000 CC11(3EA1HWX-2)
MMDVM DMO 222.3400/222.3400 CC1(2EA1HWX-10)
EA1AHA 43.32.72N 005.54.38WIN73BN 21.163km 297°WNW10:02:22ZWind 000°/000kn, Böen bis 000kn, Temp 12.22c, Regen 0.0mm, letzte 24h 0.0mm, seit 0h 0.0mm, Baro 1022.9h, Hum: 61%(3EA1AHA-13)
EA1AQK 43.16.49N 005.35.99WIN73EG 21.345km 164°SSE10:24:13ZMMDVM MMDVM HS Hat 439.8500/439.8500 CC1(3EA1AQK-1)
ED1ZAY 43.29.47N 005.56.54WIN73AL 22.100km 279°W10:22:09ZRD625 438.3000/430.7000 CC1
EA1DZL 43.33.56N 005.55.78WIN73AN 23.540km 298°WNW10:25:23ZMMDVM MMDVM HS Hat 438.8000/438.8000 CC1(3EA1DZL-1)
EA1IYK 43.15.18N 005.46.12WIN73CG 24.253km 199°SSW10:12:35Zhttps://aprsdroid.org/(3EA1IYK-10)
EA1IMW 43.14.36N 005.46.93WIN73CF 26.067km 200°SSW10:24:04ZGRUPO RADIO GALENA (GRG) 430.4500/430.4500 CC1(3EA1IMW-1)
EB1DGC 43.12.60N 005.45.59WIN73CF 28.657km 194°SSW10:22:38ZMMDVM MMDVM HS Hat 433.4500/433.4500 CC1
EA1JBL 43.12.28N 005.47.42WIN73CE 29.910km 199°SSW10:22:48ZMMDVM DVMega 435.3000/435.3000 CC1
EA1HWA 43.12.00N 005.47.40WIN73CE 30.407km 198°SSW10:22:59ZMMDVM MMDVM HS Hat 433.4500/433.4500 CC1
EA1JBE 43.30.90N 005.16.15WIN73IM 33.075km 79°E10:15:02ZMMDVM MMDVM HS Hat 433.4500/433.4500 CC1(3EA1JBE-13)
MAIN QTH http://qrz.com/db/ea1jbe(2EA1JBE-1)
EA1RCG 43.09.45N 005.49.78WIN73CD 35.923km 201°SSW10:23:56ZGRUPO RADIO GALENA (GRG) 430.4500/430.4500 CC1(3EA1RCG-3)
ED1ZAD 43.07.90N 005.38.52WIN73ED 36.532km 176°S10:24:12ZED1ZAD-3 APRS Digi/Igate(3ED1ZAD-3)
ED1ZBF 43.19.16N 005.06.74WIN73KH 47.820km 109°ESE10:22:08ZRD625 438.4750/430.8750 CC1
EC1KV 43.34.01N 006.16.01WIN63UN 49.412km 284°WNW10:19:55ZALBUERNE(3EC1KV-1)

aprs.pl 5.0.011w DL3EL © 2006-2021 [7966880]